Terminal Aerodrome Forecast
Issued by NWS

Home | Current Version | Previous Version | Text Only | Print | Product List | Glossary On
Versions: 1 2 3 4 5 6 7 8 9 10 11 12 13 14 15
000
FTUS43 KIND 012300
TAFLAF
TAF
KLAF 012320Z 0200/0224 31010KT 1SM -SN BR OVC005
     FM020200 36016G27KT 3/4SM -SN BR BLSN OVC003
     FM020500 35020G31KT 3SM -SHSN BLSN OVC009
     FM021200 34012G21KT P6SM OVC018
     FM021700 31010KT P6SM BKN030
      AMD LTD TO CLD VIS AND WIND 0202/0214=

USA.gov is the U.S. government's official web portal to all federal, state and local government web resources and services.